createdAt,value
2022-12-05T00:01:31.368Z,58.59
2022-12-05T00:04:01.029Z,58.94
2022-12-05T00:06:29.346Z,58.85
2022-12-05T00:08:56.960Z,59.14
2022-12-05T00:11:26.919Z,58.88
2022-12-05T00:13:56.390Z,58.68
2022-12-05T00:16:25.295Z,59.23
2022-12-05T00:18:52.053Z,59.50
2022-12-05T00:21:23.233Z,58.91
2022-12-05T00:23:51.122Z,59.15
2022-12-05T00:26:17.853Z,59.79
2022-12-05T00:28:45.920Z,60.43
2022-12-05T00:31:16.552Z,60.61
2022-12-05T00:33:44.041Z,60.78
2022-12-05T00:36:14.046Z,61.08
2022-12-05T00:38:42.255Z,61.34
2022-12-05T00:41:14.419Z,61.18
2022-12-05T00:43:41.665Z,61.57
2022-12-05T00:46:11.400Z,61.91
2022-12-05T00:48:38.223Z,62.38
2022-12-05T00:51:17.862Z,62.16
2022-12-05T00:53:46.013Z,61.76
2022-12-05T00:56:15.952Z,61.52
2022-12-05T00:58:43.423Z,61.90
2022-12-05T01:01:28.788Z,62.53
2022-12-05T01:03:57.664Z,62.28
2022-12-05T01:06:25.658Z,62.05
2022-12-05T01:08:54.602Z,62.57
2022-12-05T01:11:22.023Z,62.50
2022-12-05T01:13:49.150Z,62.24
2022-12-05T01:16:24.889Z,61.98
2022-12-05T01:18:51.986Z,62.58
2022-12-05T01:21:19.411Z,62.44
2022-12-05T01:23:46.331Z,63.37
2022-12-05T01:26:14.956Z,63.95
2022-12-05T01:28:42.232Z,64.34
2022-12-05T01:31:30.843Z,64.42
2022-12-05T01:34:00.332Z,64.50
2022-12-05T01:36:27.911Z,64.06
2022-12-05T01:38:55.414Z,64.02
2022-12-05T01:41:25.570Z,64.20
2022-12-05T01:44:15.498Z,64.26
2022-12-05T01:46:50.686Z,63.83
2022-12-05T01:49:39.912Z,63.55
2022-12-05T01:52:18.544Z,63.60
2022-12-05T01:54:48.199Z,63.02
2022-12-05T01:57:15.720Z,63.03
2022-12-05T01:59:49.144Z,62.94
2022-12-05T02:02:16.422Z,63.11
2022-12-05T02:05:14.495Z,63.27
2022-12-05T02:07:43.792Z,63.98
2022-12-05T02:10:11.164Z,63.93
2022-12-05T02:12:40.638Z,64.24
2022-12-05T02:15:25.862Z,64.25
2022-12-05T02:18:04.046Z,63.88
2022-12-05T02:20:36.169Z,63.80
2022-12-05T02:23:37.450Z,63.48
2022-12-05T02:26:13.236Z,63.19
2022-12-05T02:28:59.091Z,63.13
2022-12-05T02:32:04.863Z,62.94
2022-12-05T02:34:34.279Z,63.14
2022-12-05T02:37:14.133Z,63.48
2022-12-05T02:40:03.336Z,63.31
2022-12-05T02:42:50.262Z,63.63
2022-12-05T02:45:20.265Z,63.86
2022-12-05T02:47:52.772Z,64.56
2022-12-05T02:50:23.677Z,64.61
2022-12-05T02:52:54.475Z,64.71
2022-12-05T02:55:23.864Z,65.02
2022-12-05T02:57:54.879Z,64.73
2022-12-05T03:00:21.981Z,64.50
2022-12-05T03:02:56.084Z,64.60
2022-12-05T03:05:42.245Z,64.54
2022-12-05T03:08:16.289Z,65.15
2022-12-05T03:10:45.339Z,65.55
2022-12-05T03:13:19.091Z,65.77
2022-12-05T03:15:50.838Z,65.71
2022-12-05T03:18:38.100Z,65.91
2022-12-05T03:21:29.751Z,65.88
2022-12-05T03:24:09.352Z,65.11
2022-12-05T03:26:57.535Z,65.53
2022-12-05T03:29:36.175Z,65.16
2022-12-05T03:32:05.913Z,65.78
2022-12-05T03:34:45.217Z,65.78
2022-12-05T03:37:20.291Z,66.49
2022-12-05T03:39:55.220Z,66.14
2022-12-05T03:42:31.224Z,66.21
2022-12-05T03:45:02.515Z,66.44
2022-12-05T03:47:47.083Z,67.15
2022-12-05T03:50:22.815Z,67.98
2022-12-05T03:56:11.914Z,68.57
2022-12-05T03:58:48.671Z,68.97
2022-12-05T04:01:18.430Z,68.56
2022-12-05T04:03:52.893Z,68.86
2022-12-05T04:06:50.348Z,68.63
2022-12-05T04:09:24.127Z,68.95
2022-12-05T04:12:01.712Z,69.11
2022-12-05T04:14:35.322Z,67.98
2022-12-05T04:17:09.330Z,68.18
2022-12-05T04:20:09.276Z,68.41
2022-12-05T04:22:37.723Z,68.53
2022-12-05T04:25:27.325Z,69.09
2022-12-05T04:27:56.985Z,68.85
2022-12-05T04:30:30.379Z,69.08
2022-12-05T04:33:24.318Z,69.13
2022-12-05T04:36:01.202Z,69.92
2022-12-05T04:38:54.170Z,69.96
2022-12-05T04:41:24.427Z,69.51
2022-12-05T04:43:56.460Z,69.87
2022-12-05T04:46:24.561Z,68.86
2022-12-05T04:48:56.385Z,69.11
2022-12-05T04:51:30.923Z,68.08
2022-12-05T04:54:02.730Z,67.66
2022-12-05T04:56:34.103Z,68.32
2022-12-05T04:59:00.941Z,68.24
2022-12-05T05:01:34.207Z,67.97
2022-12-05T05:04:13.020Z,67.49
2022-12-05T05:06:40.880Z,67.23
2022-12-05T05:09:07.854Z,67.14
2022-12-05T05:11:36.388Z,67.81
2022-12-05T05:14:03.946Z,66.58
2022-12-05T05:16:48.684Z,66.51
2022-12-05T05:19:15.549Z,66.42
2022-12-05T05:21:42.919Z,66.54
2022-12-05T05:24:11.983Z,65.79
2022-12-05T05:26:40.803Z,66.24
2022-12-05T05:29:07.966Z,66.00
2022-12-05T05:31:35.477Z,65.83
2022-12-05T05:34:09.126Z,66.38
2022-12-05T05:36:36.791Z,65.78
2022-12-05T05:39:06.798Z,65.55
2022-12-05T05:41:36.065Z,65.41
2022-12-05T05:44:04.112Z,66.13
2022-12-05T05:46:33.939Z,65.71
2022-12-05T05:49:01.090Z,65.45
2022-12-05T05:51:29.366Z,65.34
2022-12-05T05:53:57.834Z,65.69
2022-12-05T05:56:24.878Z,65.57
2022-12-05T05:58:57.050Z,64.82
2022-12-05T06:01:24.504Z,64.86
2022-12-05T06:03:51.296Z,64.87
2022-12-05T06:06:19.107Z,65.26
2022-12-05T06:08:46.213Z,65.62
2022-12-05T06:11:25.413Z,64.92
2022-12-05T06:13:57.313Z,65.36
2022-12-05T06:16:24.857Z,66.34
2022-12-05T06:18:52.390Z,66.32
2022-12-05T06:21:19.262Z,66.10
2022-12-05T06:23:46.025Z,66.15
2022-12-05T06:26:15.134Z,66.05
2022-12-05T06:28:42.323Z,66.67
2022-12-05T06:31:18.253Z,66.82
2022-12-05T06:33:45.583Z,66.58
2022-12-05T06:36:15.189Z,66.77
2022-12-05T06:38:42.688Z,66.89
2022-12-05T06:41:13.876Z,66.62
2022-12-05T06:43:40.823Z,66.66
2022-12-05T06:46:11.959Z,67.00
2022-12-05T06:48:39.707Z,66.33
2022-12-05T06:51:10.526Z,66.31
2022-12-05T06:53:37.731Z,66.63
2022-12-05T06:56:08.292Z,66.16
2022-12-05T06:58:35.078Z,66.93
2022-12-05T07:01:20.119Z,65.01
2022-12-05T07:03:49.357Z,64.89
2022-12-05T07:06:17.422Z,64.57
2022-12-05T07:08:44.902Z,65.07
2022-12-05T07:11:11.837Z,64.54
2022-12-05T07:13:38.693Z,64.72
2022-12-05T07:16:07.339Z,64.56
2022-12-05T07:18:35.912Z,64.60
2022-12-05T07:21:14.273Z,64.48
2022-12-05T07:23:43.603Z,65.15
2022-12-05T07:26:13.117Z,64.74
2022-12-05T07:28:39.870Z,64.50
2022-12-05T07:31:12.000Z,64.20
2022-12-05T07:33:39.031Z,64.37
2022-12-05T07:36:11.736Z,64.23
2022-12-05T07:38:39.687Z,66.84
2022-12-05T07:41:13.107Z,66.53
2022-12-05T07:43:41.357Z,68.92
2022-12-05T07:46:11.963Z,63.58
2022-12-05T07:48:39.924Z,63.54
2022-12-05T07:51:08.356Z,62.65
2022-12-05T07:53:36.055Z,62.33
2022-12-05T07:56:05.927Z,63.14
2022-12-05T07:58:34.196Z,64.14
2022-12-05T08:01:19.133Z,62.54
2022-12-05T08:03:46.592Z,62.85
2022-12-05T08:06:15.352Z,62.75
2022-12-05T08:08:42.648Z,62.49
2022-12-05T08:11:15.026Z,61.96
2022-12-05T08:13:43.057Z,61.47
2022-12-05T08:16:14.189Z,61.25
2022-12-05T08:18:42.412Z,60.80
2022-12-05T08:21:15.135Z,61.59
2022-12-05T08:23:42.250Z,61.13
2022-12-05T08:26:21.015Z,60.17
2022-12-05T08:28:51.710Z,59.55
2022-12-05T08:31:20.875Z,59.99
2022-12-05T08:33:47.758Z,60.47
2022-12-05T08:36:15.742Z,60.20
2022-12-05T08:38:43.591Z,60.39
2022-12-05T08:41:13.058Z,60.41
2022-12-05T08:43:40.202Z,60.32
2022-12-05T08:46:07.664Z,60.36
2022-12-05T08:48:35.356Z,59.68
2022-12-05T08:51:07.878Z,59.59
2022-12-05T08:53:40.978Z,59.22
2022-12-05T08:56:11.427Z,59.91
2022-12-05T08:58:39.158Z,59.24
2022-12-05T09:01:06.817Z,59.18
2022-12-05T09:03:33.793Z,58.90
2022-12-05T09:06:12.208Z,58.70
2022-12-05T09:08:39.947Z,58.41
2022-12-05T09:11:08.836Z,58.56
2022-12-05T09:13:35.908Z,58.74
2022-12-05T09:16:14.642Z,58.17
2022-12-05T09:18:41.736Z,58.23
2022-12-05T09:21:13.878Z,58.16
2022-12-05T09:23:41.509Z,58.34
2022-12-05T09:26:11.913Z,56.97
2022-12-05T09:28:39.777Z,56.74
2022-12-05T09:31:10.039Z,56.70
2022-12-05T09:33:38.485Z,56.31
2022-12-05T09:36:06.956Z,56.41
2022-12-05T09:38:35.132Z,56.41
2022-12-05T09:41:51.286Z,56.72
2022-12-05T09:44:32.803Z,56.39
2022-12-05T09:47:04.646Z,56.75
2022-12-05T09:49:34.409Z,56.50
2022-12-05T09:52:03.431Z,56.22
2022-12-05T09:54:32.524Z,56.06
2022-12-05T09:57:00.075Z,56.27
2022-12-05T09:59:26.753Z,55.76
2022-12-05T10:01:56.364Z,55.59
2022-12-05T10:04:33.363Z,56.14
2022-12-05T10:07:27.465Z,55.09
2022-12-05T10:10:20.192Z,54.91
2022-12-05T10:13:05.894Z,55.40
2022-12-05T10:15:43.910Z,55.16
2022-12-05T10:18:20.292Z,55.00
2022-12-05T10:20:49.243Z,55.08
2022-12-05T10:23:48.755Z,54.85
2022-12-05T10:26:11.425Z,54.99
2022-12-05T10:28:41.487Z,54.61
2022-12-05T10:31:12.663Z,54.84
2022-12-05T10:33:44.805Z,54.41
2022-12-05T10:36:12.902Z,53.81
2022-12-05T10:38:41.321Z,55.00
2022-12-05T10:41:10.885Z,53.68
2022-12-05T10:43:41.108Z,53.67
2022-12-05T10:46:11.662Z,53.19
2022-12-05T10:48:43.025Z,53.34
2022-12-05T10:51:18.001Z,53.41
2022-12-05T10:53:51.298Z,53.14
2022-12-05T10:56:41.210Z,52.92
2022-12-05T10:59:13.875Z,52.67
2022-12-05T11:01:48.476Z,53.39
2022-12-05T11:04:20.785Z,52.55
2022-12-05T11:06:52.347Z,52.19
2022-12-05T11:09:26.365Z,52.37
2022-12-05T11:12:20.349Z,52.64
2022-12-05T11:15:01.203Z,52.34
2022-12-05T11:17:38.056Z,52.99
2022-12-05T11:20:18.162Z,52.19
2022-12-05T11:22:56.470Z,52.89
2022-12-05T11:25:34.044Z,51.99
2022-12-05T11:28:19.485Z,51.95
2022-12-05T11:31:19.978Z,52.17
2022-12-05T11:34:02.122Z,52.23
2022-12-05T11:36:43.775Z,52.31
2022-12-05T11:39:13.692Z,52.40
2022-12-05T11:41:58.760Z,52.26
2022-12-05T11:44:51.450Z,52.24
2022-12-05T11:47:53.462Z,52.23
2022-12-05T11:50:57.416Z,52.36
2022-12-05T11:53:42.609Z,52.24
2022-12-05T11:56:12.072Z,52.33
2022-12-05T11:58:52.657Z,52.71
2022-12-05T12:01:45.188Z,52.01
2022-12-05T12:04:23.965Z,52.05
2022-12-05T12:07:09.174Z,52.47
2022-12-05T12:10:03.638Z,52.32
2022-12-05T12:12:50.688Z,52.87
2022-12-05T12:15:31.412Z,52.78
2022-12-05T12:18:13.161Z,52.88
2022-12-05T12:20:42.610Z,53.08
2022-12-05T12:23:41.426Z,57.11
2022-12-05T12:26:14.570Z,59.57
2022-12-05T12:28:57.042Z,59.78
2022-12-05T12:31:54.719Z,59.84
2022-12-05T12:34:42.001Z,59.83
2022-12-05T12:37:32.725Z,59.74
2022-12-05T12:40:14.328Z,59.57
2022-12-05T12:43:51.623Z,59.75
2022-12-05T12:46:15.745Z,60.07
2022-12-05T12:48:54.520Z,59.98
2022-12-05T12:51:21.398Z,60.22
2022-12-05T12:54:10.424Z,60.28
2022-12-05T12:57:20.611Z,60.75
2022-12-05T13:00:18.156Z,60.61
2022-12-05T13:02:52.381Z,60.40
2022-12-05T13:05:28.227Z,60.09
2022-12-05T13:08:01.999Z,60.45
2022-12-05T13:10:41.060Z,60.54
2022-12-05T13:13:14.709Z,60.24
2022-12-05T13:15:44.832Z,60.42
2022-12-05T13:18:17.126Z,61.11
2022-12-05T13:20:46.429Z,60.76
2022-12-05T13:23:16.533Z,60.64
2022-12-05T13:25:46.091Z,60.77
2022-12-05T13:28:55.126Z,60.67
2022-12-05T13:31:54.564Z,60.73
2022-12-05T13:34:27.442Z,61.12
2022-12-05T13:37:14.600Z,61.44
2022-12-05T13:40:00.009Z,61.57
2022-12-05T13:42:31.981Z,61.54
2022-12-05T13:45:05.968Z,61.69
2022-12-05T13:47:35.204Z,62.00
2022-12-05T13:50:23.220Z,61.40
2022-12-05T13:53:16.820Z,62.25
2022-12-05T13:56:00.304Z,62.38
2022-12-05T13:58:45.515Z,62.41
2022-12-05T14:01:27.400Z,62.83
2022-12-05T14:03:55.640Z,62.74
2022-12-05T14:06:38.688Z,62.79
2022-12-05T14:09:17.234Z,62.84
2022-12-05T14:12:14.945Z,62.61
2022-12-05T14:15:04.095Z,62.10
2022-12-05T14:17:33.861Z,61.89
2022-12-05T14:20:21.571Z,61.79
2022-12-05T14:23:06.400Z,62.57
2022-12-05T14:25:58.123Z,63.28
2022-12-05T14:28:50.180Z,62.47
2022-12-05T14:31:42.576Z,62.48
2022-12-05T14:34:18.031Z,63.07
2022-12-05T14:37:05.054Z,63.68
2022-12-05T14:39:40.615Z,63.94
2022-12-05T14:42:24.509Z,63.54
2022-12-05T14:44:54.239Z,63.90
2022-12-05T14:47:26.921Z,63.67
2022-12-05T14:50:31.271Z,62.60
2022-12-05T14:53:22.677Z,63.22
2022-12-05T14:56:01.444Z,63.09
2022-12-05T14:58:40.683Z,62.78
2022-12-05T15:01:12.945Z,63.10
2022-12-05T15:03:54.726Z,64.22
2022-12-05T15:06:22.840Z,64.55
2022-12-05T15:08:55.076Z,64.46
2022-12-05T15:11:31.148Z,65.28
2022-12-05T15:14:13.017Z,65.67
2022-12-05T15:16:43.871Z,65.49
2022-12-05T15:19:19.185Z,65.04
2022-12-05T15:21:57.156Z,65.60
2022-12-05T15:24:23.982Z,66.07
2022-12-05T15:26:53.913Z,66.49
2022-12-05T15:29:20.635Z,66.19
2022-12-05T15:31:50.617Z,66.38
2022-12-05T15:34:17.263Z,66.43
2022-12-05T15:36:51.187Z,66.64
2022-12-05T15:39:25.891Z,66.78
2022-12-05T15:41:57.969Z,66.54
2022-12-05T15:44:31.676Z,66.86
2022-12-05T15:47:02.789Z,67.20
2022-12-05T15:49:29.548Z,67.17
2022-12-05T15:52:10.123Z,67.61
2022-12-05T15:54:38.622Z,67.89
2022-12-05T15:57:20.576Z,67.94
2022-12-05T16:00:01.256Z,67.44
2022-12-05T16:02:44.229Z,68.03
2022-12-05T16:05:24.923Z,67.91
2022-12-05T16:07:52.101Z,68.56
2022-12-05T16:10:23.420Z,68.65
2022-12-05T16:12:53.650Z,68.51
2022-12-05T16:15:23.134Z,68.17
2022-12-05T16:17:58.724Z,68.25
2022-12-05T16:20:31.423Z,68.78
2022-12-05T16:23:27.546Z,69.05
2022-12-05T16:26:09.746Z,69.42
2022-12-05T16:28:36.355Z,69.41
2022-12-05T16:31:05.568Z,69.72
2022-12-05T16:33:32.977Z,69.73
2022-12-05T16:36:12.962Z,69.12
2022-12-05T16:38:41.076Z,69.16
2022-12-05T16:41:09.278Z,69.32
2022-12-05T16:43:35.933Z,69.11
2022-12-05T16:46:12.934Z,69.03
2022-12-05T16:48:47.592Z,69.16
2022-12-05T16:51:16.986Z,69.37
2022-12-05T16:53:46.252Z,69.33
2022-12-05T16:56:16.672Z,69.45
2022-12-05T16:58:44.528Z,69.35
2022-12-05T17:01:18.114Z,69.22
2022-12-05T17:03:45.669Z,69.55
2022-12-05T17:06:14.789Z,69.33
2022-12-05T17:08:44.628Z,69.41
2022-12-05T17:11:27.203Z,69.66
2022-12-05T17:13:55.957Z,69.34
2022-12-05T17:16:22.727Z,69.12
2022-12-05T17:18:49.470Z,69.44
2022-12-05T17:21:19.654Z,69.26
2022-12-05T17:23:48.335Z,69.45
2022-12-05T17:26:17.594Z,69.57
2022-12-05T17:28:44.533Z,69.41
2022-12-05T17:31:17.469Z,69.54
2022-12-05T17:33:48.855Z,69.76
2022-12-05T17:36:16.371Z,69.58
2022-12-05T17:38:44.188Z,70.18
2022-12-05T17:41:23.085Z,70.60
2022-12-05T17:43:51.572Z,70.77
2022-12-05T17:46:21.381Z,70.91
2022-12-05T17:48:49.439Z,70.99
2022-12-05T17:51:16.610Z,71.04
2022-12-05T17:53:50.205Z,71.39
2022-12-05T17:56:16.932Z,71.37
2022-12-05T17:58:43.813Z,71.43
2022-12-05T18:01:19.527Z,71.57
2022-12-05T18:03:47.466Z,71.62
2022-12-05T18:06:14.828Z,71.86
2022-12-05T18:08:44.085Z,71.52
2022-12-05T18:11:14.233Z,71.59
2022-12-05T18:13:41.178Z,71.95
2022-12-05T18:16:08.120Z,71.97
2022-12-05T18:18:35.045Z,71.57
2022-12-05T18:21:11.472Z,71.71
2022-12-05T18:23:39.638Z,71.81
2022-12-05T18:26:08.817Z,72.09
2022-12-05T18:28:39.742Z,72.27
2022-12-05T18:31:08.526Z,71.92
2022-12-05T18:33:38.330Z,71.83
2022-12-05T18:36:09.978Z,71.71
2022-12-05T18:38:37.319Z,71.80
2022-12-05T18:41:05.865Z,71.88
2022-12-05T18:43:33.403Z,71.96
2022-12-05T18:46:02.254Z,72.21
2022-12-05T18:48:44.793Z,72.27
2022-12-05T18:51:19.738Z,72.24
2022-12-05T18:53:52.428Z,71.97
2022-12-05T18:56:27.880Z,72.08
2022-12-05T18:58:59.991Z,71.90
2022-12-05T19:01:27.651Z,72.15
2022-12-05T19:03:54.767Z,72.53
2022-12-05T19:06:24.658Z,72.25
2022-12-05T19:08:55.295Z,72.22
2022-12-05T19:11:23.109Z,72.64
2022-12-05T19:13:49.976Z,72.73
2022-12-05T19:16:18.561Z,72.94
2022-12-05T19:18:46.590Z,72.82
2022-12-05T19:21:13.726Z,73.12
2022-12-05T19:23:40.464Z,72.88
2022-12-05T19:26:09.619Z,72.99
2022-12-05T19:28:37.651Z,73.00
2022-12-05T19:31:09.843Z,73.06
2022-12-05T19:33:45.480Z,73.38
2022-12-05T19:36:27.162Z,73.41
2022-12-05T19:38:55.177Z,73.70
2022-12-05T19:41:24.379Z,73.60
2022-12-05T19:43:51.323Z,74.02
2022-12-05T19:46:20.671Z,74.17
2022-12-05T19:48:48.357Z,74.42
2022-12-05T19:51:15.104Z,74.26
2022-12-05T19:53:43.818Z,74.13
2022-12-05T19:56:21.939Z,73.84
2022-12-05T19:58:50.056Z,73.73
2022-12-05T20:01:26.037Z,73.73
2022-12-05T20:03:55.474Z,74.14
2022-12-05T20:06:22.587Z,74.22
2022-12-05T20:08:52.472Z,74.69
2022-12-05T20:11:24.982Z,74.52
2022-12-05T20:13:54.556Z,74.90
2022-12-05T20:16:22.975Z,74.77
2022-12-05T20:18:50.361Z,75.30
2022-12-05T20:21:20.196Z,75.62
2022-12-05T20:23:46.928Z,76.21
2022-12-05T20:26:17.564Z,75.60
2022-12-05T20:28:45.495Z,74.42
2022-12-05T20:31:14.520Z,74.41
2022-12-05T20:33:41.790Z,74.04
2022-12-05T20:36:14.515Z,74.45
2022-12-05T20:38:41.811Z,74.59
2022-12-05T20:41:11.633Z,74.11
2022-12-05T20:43:38.522Z,74.05
2022-12-05T20:46:13.937Z,73.80
2022-12-05T20:48:41.376Z,73.98
2022-12-05T20:51:11.065Z,73.99
2022-12-05T20:53:39.817Z,73.63
2022-12-05T20:56:18.056Z,73.62
2022-12-05T20:58:47.133Z,73.54
2022-12-05T21:01:15.276Z,73.61
2022-12-05T21:03:44.019Z,73.79
2022-12-05T21:06:13.466Z,73.92
2022-12-05T21:08:40.881Z,74.49
2022-12-05T21:11:08.825Z,74.41
2022-12-05T21:13:35.842Z,74.93
2022-12-05T21:16:08.262Z,74.84
2022-12-05T21:18:36.131Z,74.70
2022-12-05T21:21:05.861Z,74.33
2022-12-05T21:23:33.401Z,74.19
2022-12-05T21:26:05.871Z,74.04
2022-12-05T21:28:33.572Z,73.92
2022-12-05T21:31:08.244Z,74.00
2022-12-05T21:33:35.611Z,73.67
2022-12-05T21:36:02.297Z,73.84
2022-12-05T21:38:29.084Z,73.80
2022-12-05T21:40:55.739Z,73.92
2022-12-05T21:43:22.768Z,73.79
2022-12-05T21:45:56.067Z,73.82
2022-12-05T21:48:24.335Z,74.07
2022-12-05T21:50:51.675Z,73.75
2022-12-05T21:53:19.601Z,74.08
2022-12-05T21:55:46.313Z,73.91
2022-12-05T21:58:13.939Z,74.04
2022-12-05T22:00:40.674Z,74.23
2022-12-05T22:03:07.581Z,73.93
2022-12-05T22:05:34.365Z,73.84
2022-12-05T22:08:05.998Z,74.20
2022-12-05T22:10:36.365Z,73.89
2022-12-05T22:13:03.486Z,73.92
2022-12-05T22:15:30.428Z,74.35
2022-12-05T22:17:57.363Z,74.48
2022-12-05T22:20:24.067Z,74.19
2022-12-05T22:22:51.026Z,74.14
2022-12-05T22:25:17.722Z,74.18
2022-12-05T22:27:44.517Z,74.74
2022-12-05T22:30:11.465Z,74.86
2022-12-05T22:32:38.198Z,74.96
2022-12-05T22:35:17.264Z,74.96
2022-12-05T22:37:43.921Z,74.90
2022-12-05T22:40:10.918Z,74.69
2022-12-05T22:42:37.656Z,74.68
2022-12-05T22:45:04.724Z,75.23
2022-12-05T22:47:31.356Z,75.09
2022-12-05T22:49:58.150Z,75.43
2022-12-05T22:52:25.000Z,75.36
2022-12-05T22:54:51.659Z,75.63
2022-12-05T22:57:18.335Z,75.68
2022-12-05T22:59:44.997Z,75.62
2022-12-05T23:02:11.690Z,76.44
2022-12-05T23:04:38.289Z,76.15
2022-12-05T23:07:04.942Z,76.28
2022-12-05T23:09:31.545Z,76.52
2022-12-05T23:11:58.212Z,77.20
2022-12-05T23:14:24.879Z,76.60
2022-12-05T23:16:51.572Z,76.73
2022-12-05T23:19:18.358Z,76.93
2022-12-05T23:21:45.131Z,76.63
2022-12-05T23:24:12.858Z,76.59
2022-12-05T23:26:44.719Z,76.56
2022-12-05T23:29:13.155Z,76.53
2022-12-05T23:31:41.964Z,76.43
2022-12-05T23:34:09.305Z,77.06
2022-12-05T23:36:36.079Z,76.74
2022-12-05T23:39:03.627Z,76.39
2022-12-05T23:41:30.368Z,76.26
2022-12-05T23:43:58.016Z,76.83
2022-12-05T23:46:27.099Z,76.80
2022-12-05T23:48:55.207Z,76.36
2022-12-05T23:51:27.239Z,75.87
2022-12-05T23:53:55.105Z,76.18
2022-12-05T23:56:24.606Z,75.91
2022-12-05T23:58:51.766Z,76.04
